Аэропорт: Псков. Псков

ICAO: ULOO

METAR:
2021-07-28 14:30:00
ULOO 281430Z 18002MPS 120V250 CAVOK 23/19 Q1008 R19/290055 NOSIG RMK QFE752
METAR:
2021-07-28 10:55:00
TAF ULOO 281055Z 2812/2821 17004MPS 9999 SCT025 BKN040 TEMPO 2812/2816 22004G09MPS 3000 -TSRA SCT013 BKN025CB BECMG 2816/2817 25003MPS